Time;durP1;ratioP1;P1;durP2;ratioP2;P2;SDS_P1;SDS_P2;PMS_P1;PMS_P2;Temp;Humidity;BMP_temperature;BMP_pressure;BME280_temperature;BME280_humidity;BME280_pressure;Samples;Min_cycle;Max_cycle;Signal;HPM_P1;HPM_P2
2022/11/06 00:02:02;;;;;;;11.23;5.22;;;9.80;99.90;;;;;;5022121;28;20511;-76
2022/11/06 00:04:28;;;;;;;10.82;6.38;;;10.00;99.90;;;;;;5021632;28;20043;-68
2022/11/06 00:06:54;;;;;;;9.00;4.53;;;9.90;99.90;;;;;;5022862;28;20095;-78
2022/11/06 00:09:20;;;;;;;10.63;6.72;;;10.00;99.90;;;;;;5022412;28;20069;-76
2022/11/06 00:11:48;;;;;;;6.78;4.32;;;9.90;99.90;;;;;;5022528;28;20099;-70
2022/11/06 00:14:14;;;;;;;8.55;5.30;;;9.80;99.90;;;;;;5021711;28;20057;-78
2022/11/06 00:16:41;;;;;;;10.52;6.32;;;9.80;99.90;;;;;;5022257;28;20063;-76
2022/11/06 00:19:07;;;;;;;9.75;6.70;;;9.80;99.90;;;;;;5004403;28;20133;-72
2022/11/06 00:21:33;;;;;;;6.90;5.30;;;9.90;99.90;;;;;;5022528;28;20091;-79
2022/11/06 00:24:01;;;;;;;9.18;4.72;;;9.90;99.90;;;;;;5021907;28;20033;-75
2022/11/06 00:26:28;;;;;;;10.07;5.97;;;9.90;99.90;;;;;;5021451;28;20958;-72
2022/11/06 00:28:55;;;;;;;6.82;4.25;;;9.80;99.90;;;;;;5022005;28;20054;-75
2022/11/06 00:31:26;;;;;;;8.38;5.47;;;10.00;99.90;;;;;;5022788;28;20420;-81
2022/11/06 00:33:54;;;;;;;7.45;5.10;;;9.80;99.90;;;;;;5020925;28;20475;-73
2022/11/06 00:36:22;;;;;;;11.02;5.78;;;9.80;99.90;;;;;;5004818;28;20049;-79
2022/11/06 00:38:52;;;;;;;9.77;4.38;;;9.70;99.90;;;;;;5022474;28;20544;-81
2022/11/06 00:41:18;;;;;;;9.80;6.13;;;9.60;99.90;;;;;;5021627;28;20038;-73
2022/11/06 00:43:50;;;;;;;10.70;6.72;;;9.90;99.90;;;;;;5022277;28;20053;-79
2022/11/06 00:46:16;;;;;;;10.27;6.05;;;9.60;99.90;;;;;;5022426;28;20084;-70
2022/11/06 00:48:42;;;;;;;12.48;7.38;;;9.60;99.90;;;;;;5003658;28;20053;-72
2022/11/06 00:51:21;;;;;;;10.23;7.03;;;9.80;99.90;;;;;;5022474;28;20045;-74
2022/11/06 00:53:46;;;;;;;10.05;6.85;;;9.70;99.90;;;;;;5022537;28;20384;-78
2022/11/06 00:56:15;;;;;;;12.05;7.28;;;9.80;99.90;;;;;;5019801;28;20049;-77
2022/11/06 00:58:41;;;;;;;11.02;6.13;;;9.60;99.90;;;;;;5022577;28;20063;-73
2022/11/06 01:01:11;;;;;;;11.23;7.93;;;9.60;99.90;;;;;;5022836;28;20128;-75
2022/11/06 01:03:38;;;;;;;10.65;6.20;;;9.60;99.90;;;;;;5021008;28;20057;-69
2022/11/06 01:06:13;;;;;;;10.88;7.05;;;9.60;99.90;;;;;;5021253;28;20408;-69
2022/11/06 01:08:39;;;;;;;12.40;7.90;;;9.40;99.90;;;;;;5002454;28;20034;-72
2022/11/06 01:11:17;;;;;;;8.38;5.20;;;9.30;99.90;;;;;;5002019;28;20104;-75
2022/11/06 01:13:43;;;;;;;11.73;7.30;;;9.20;99.90;;;;;;5002346;28;20069;-70
2022/11/06 01:16:13;;;;;;;11.35;6.03;;;9.40;99.90;;;;;;5002370;28;20046;-78
2022/11/06 01:18:40;;;;;;;11.07;7.65;;;9.10;99.90;;;;;;4983599;28;20049;-75
2022/11/06 01:21:11;;;;;;;12.50;8.27;;;9.30;99.90;;;;;;4984749;28;20054;-74
2022/11/06 01:23:37;;;;;;;13.13;8.70;;;9.40;99.90;;;;;;4997807;28;20041;-78
2022/11/06 01:26:05;;;;;;;13.23;8.52;;;9.00;99.90;;;;;;5020978;28;20099;-73
2022/11/06 01:28:31;;;;;;;12.50;7.93;;;9.10;99.90;;;;;;5021919;28;20080;-73
2022/11/06 01:31:11;;;;;;;10.68;7.50;;;9.10;99.90;;;;;;5021418;28;20042;-80
2022/11/06 01:33:37;;;;;;;10.73;7.50;;;9.00;99.90;;;;;;5003071;28;20049;-81
2022/11/06 01:36:03;;;;;;;14.95;8.45;;;9.10;99.90;;;;;;5023109;28;20095;-76
2022/11/06 01:38:29;;;;;;;11.85;8.30;;;9.00;99.90;;;;;;5025344;28;20099;-73
2022/11/06 01:40:55;;;;;;;12.55;8.38;;;9.10;99.90;;;;;;5025112;28;20045;-75
2022/11/06 01:43:44;;;;;;;15.68;9.10;;;9.20;99.90;;;;;;5006923;28;20037;-79
2022/11/06 01:46:09;;;;;;;13.38;8.90;;;9.10;99.90;;;;;;5025365;28;20512;-73
2022/11/06 01:48:37;;;;;;;13.57;7.90;;;9.10;99.90;;;;;;5023508;28;20081;-77
2022/11/06 01:51:03;;;;;;;10.50;6.68;;;9.10;99.90;;;;;;5007415;28;20048;-80
2022/11/06 01:53:29;;;;;;;12.30;6.15;;;9.10;99.90;;;;;;5025463;28;20405;-78
2022/11/06 01:55:58;;;;;;;13.52;6.60;;;8.90;99.90;;;;;;5024820;28;20037;-75
2022/11/06 01:58:26;;;;;;;14.55;9.15;;;9.00;99.90;;;;;;5025541;28;20053;-78
2022/11/06 02:00:53;;;;;;;10.43;7.00;;;8.90;99.90;;;;;;5024933;28;20061;-74
2022/11/06 02:03:18;;;;;;;12.23;8.65;;;9.10;99.90;;;;;;5025119;28;20885;-74
2022/11/06 02:05:45;;;;;;;15.82;10.23;;;9.10;99.90;;;;;;5005263;28;20160;-81
2022/11/06 02:08:19;;;;;;;12.65;8.85;;;9.00;99.90;;;;;;5007620;28;20149;-82
2022/11/06 02:10:45;;;;;;;14.07;8.55;;;8.90;99.90;;;;;;5007347;28;20148;-78
2022/11/06 02:13:36;;;;;;;15.57;9.45;;;8.90;99.90;;;;;;5024572;28;20601;-81
2022/11/06 02:16:21;;;;;;;11.70;9.02;;;9.00;99.90;;;;;;5024782;28;20048;-80
2022/11/06 02:19:13;;;;;;;13.63;7.15;;;9.00;99.90;;;;;;5021841;28;20496;-83
2022/11/06 02:22:03;;;;;;;11.05;8.43;;;9.10;99.90;;;;;;5023450;28;20057;-81
2022/11/06 02:24:54;;;;;;;14.13;7.32;;;8.90;99.90;;;;;;5012555;28;20386;-78
2022/11/06 02:27:22;;;;;;;14.63;9.35;;;9.10;99.90;;;;;;5024780;28;20390;-80
2022/11/06 02:30:09;;;;;;;11.68;7.38;;;9.60;99.90;;;;;;5024212;28;20042;-72
2022/11/06 02:32:35;;;;;;;10.13;6.70;;;9.20;99.90;;;;;;5024381;28;20092;-83
2022/11/06 02:35:04;;;;;;;12.30;8.70;;;9.10;99.90;;;;;;5023288;28;20140;-80
2022/11/06 02:37:35;;;;;;;10.35;6.07;;;9.00;99.90;;;;;;5024189;28;20104;-73
2022/11/06 02:40:06;;;;;;;10.55;5.72;;;9.30;99.90;;;;;;5006350;28;20045;-83
2022/11/06 02:42:36;;;;;;;12.60;8.68;;;9.00;99.90;;;;;;5006209;28;20049;-74
2022/11/06 02:45:04;;;;;;;16.67;10.10;;;9.60;99.90;;;;;;5024313;28;20069;-83
2022/11/06 02:47:32;;;;;;;11.48;7.28;;;8.90;99.90;;;;;;5005214;28;20076;-76
2022/11/06 02:50:12;;;;;;;10.80;6.85;;;9.40;99.90;;;;;;5023363;28;20044;-76
2022/11/06 02:52:45;;;;;;;13.13;8.45;;;9.10;99.90;;;;;;5005169;28;20064;-80
2022/11/06 02:55:17;;;;;;;13.57;8.82;;;9.10;99.90;;;;;;5024434;28;20128;-78
2022/11/06 02:58:07;;;;;;;10.57;6.85;;;9.00;99.90;;;;;;5024360;28;20049;-78
2022/11/06 03:00:34;;;;;;;16.05;7.68;;;8.90;99.90;;;;;;5015131;28;20053;-75
2022/11/06 03:03:05;;;;;;;10.60;7.45;;;9.00;99.90;;;;;;5023935;28;20045;-81
2022/11/06 03:05:34;;;;;;;14.82;9.77;;;8.80;99.90;;;;;;5020940;28;20056;-75
2022/11/06 03:08:24;;;;;;;16.02;10.52;;;8.80;99.90;;;;;;5006224;28;20058;-83
2022/11/06 03:11:23;;;;;;;15.23;10.60;;;8.80;99.90;;;;;;5022946;28;20045;-75
2022/11/06 03:14:12;;;;;;;14.73;8.75;;;8.90;99.90;;;;;;5006402;28;20558;-69
2022/11/06 03:16:57;;;;;;;14.68;10.23;;;8.90;99.90;;;;;;5024397;28;20053;-71
2022/11/06 03:19:31;;;;;;;11.23;7.32;;;8.80;99.90;;;;;;5022035;28;20080;-73
2022/11/06 03:22:01;;;;;;;12.95;10.05;;;8.70;99.90;;;;;;5005684;28;20069;-80
2022/11/06 03:24:46;;;;;;;17.55;10.30;;;8.90;99.90;;;;;;5006307;28;20042;-76
2022/11/06 03:27:35;;;;;;;15.88;10.65;;;8.80;99.90;;;;;;5023808;28;20041;-79
2022/11/06 03:30:07;;;;;;;10.02;6.07;;;8.70;99.90;;;;;;5004953;28;20073;-76
2022/11/06 03:32:37;;;;;;;15.88;10.40;;;8.80;99.90;;;;;;5005750;28;20376;-79
2022/11/06 03:35:07;;;;;;;14.02;9.48;;;8.80;99.90;;;;;;5021836;28;20045;-76
2022/11/06 03:37:43;;;;;;;12.00;9.30;;;8.90;99.90;;;;;;5004604;28;20064;-77
2022/11/06 03:40:14;;;;;;;14.25;9.43;;;8.80;99.90;;;;;;5004699;28;20049;-79
2022/11/06 03:42:43;;;;;;;12.82;7.65;;;8.80;99.90;;;;;;5004951;28;20056;-72
2022/11/06 03:45:15;;;;;;;12.40;8.93;;;8.80;99.90;;;;;;5005115;28;20444;-76
2022/11/06 03:47:52;;;;;;;19.65;10.45;;;8.90;99.90;;;;;;5022817;28;20060;-75
2022/11/06 03:50:32;;;;;;;11.32;8.20;;;8.70;99.90;;;;;;5003908;28;20049;-79
2022/11/06 03:53:05;;;;;;;12.50;8.32;;;8.60;99.90;;;;;;5005119;28;20057;-73
2022/11/06 03:55:37;;;;;;;12.35;6.57;;;8.90;99.90;;;;;;5022948;28;20049;-75
2022/11/06 03:58:10;;;;;;;12.20;8.93;;;8.60;99.90;;;;;;5022649;28;20500;-73
2022/11/06 04:00:39;;;;;;;12.70;8.15;;;8.70;99.90;;;;;;4988397;28;20085;-82
2022/11/06 04:03:12;;;;;;;12.52;9.02;;;8.70;99.90;;;;;;5021320;28;20602;-74
2022/11/06 04:05:44;;;;;;;15.80;10.65;;;8.60;99.90;;;;;;5021973;28;20554;-76
2022/11/06 04:13:56;;;;;;;12.93;8.82;;;8.70;99.90;;;;;;5003637;28;20061;-70
2022/11/06 04:16:24;;;;;;;11.05;8.43;;;8.50;99.90;;;;;;5005043;28;20053;-72
2022/11/06 04:18:49;;;;;;;13.57;8.15;;;8.60;99.90;;;;;;5003778;28;20058;-83
2022/11/06 04:21:39;;;;;;;16.92;7.43;;;8.60;99.90;;;;;;5021538;28;20042;-72
2022/11/06 04:27:09;;;;;;;12.07;8.82;;;8.80;99.90;;;;;;5004527;28;20179;-75
2022/11/06 04:29:41;;;;;;;;;;;8.60;99.90;;;;;;5022848;28;20037;-71
2022/11/06 04:32:26;;;;;;;10.68;6.28;;;8.70;99.90;;;;;;5021302;28;20307;-79
2022/11/06 04:35:09;;;;;;;15.45;7.47;;;8.70;99.90;;;;;;5021170;28;20403;-76
2022/11/06 04:38:07;;;;;;;12.93;7.63;;;8.50;99.90;;;;;;5004727;28;20053;-70
2022/11/06 04:41:04;;;;;;;12.95;8.85;;;8.70;99.90;;;;;;5003454;28;20124;-70
2022/11/06 04:43:46;;;;;;;14.32;9.20;;;8.70;99.90;;;;;;4952841;28;20068;-75
2022/11/06 04:46:19;;;;;;;14.27;8.57;;;8.60;99.90;;;;;;5021847;28;20055;-76
2022/11/06 04:48:46;;;;;;;20.08;10.23;;;8.50;99.90;;;;;;5020988;28;20042;-70
2022/11/06 04:51:13;;;;;;;13.52;7.85;;;8.70;99.90;;;;;;5021229;28;20037;-75
2022/11/06 04:53:40;;;;;;;12.30;7.45;;;8.70;99.90;;;;;;5004279;28;20061;-78
2022/11/06 04:56:10;;;;;;;16.20;9.23;;;8.70;99.90;;;;;;5004191;28;20041;-74
2022/11/06 04:58:37;;;;;;;7.38;4.65;;;8.60;99.90;;;;;;5021232;28;20060;-72
2022/11/06 05:01:03;;;;;;;11.60;9.23;;;8.60;99.90;;;;;;5004245;28;20050;-81
2022/11/06 05:03:29;;;;;;;14.77;8.15;;;8.80;99.90;;;;;;5021792;28;20373;-73
2022/11/06 05:05:55;;;;;;;11.63;7.07;;;8.60;99.90;;;;;;5022278;28;20124;-75
2022/11/06 05:08:21;;;;;;;14.32;8.48;;;8.70;99.90;;;;;;5021897;28;20120;-78
2022/11/06 05:10:47;;;;;;;14.43;9.63;;;8.80;99.90;;;;;;5022824;28;20041;-77
2022/11/06 05:13:14;;;;;;;10.73;7.22;;;8.70;99.90;;;;;;5025639;28;20491;-75
2022/11/06 05:15:40;;;;;;;11.70;7.05;;;8.70;99.90;;;;;;5024672;28;20186;-68
2022/11/06 05:18:06;;;;;;;12.98;8.57;;;8.60;99.90;;;;;;5024876;28;20388;-80
2022/11/06 05:20:32;;;;;;;15.10;9.45;;;8.70;99.90;;;;;;5007739;28;20050;-80
2022/11/06 05:23:01;;;;;;;12.77;8.38;;;8.60;99.90;;;;;;5025590;28;20385;-73
2022/11/06 05:25:28;;;;;;;14.30;8.93;;;8.70;99.90;;;;;;5024672;28;20280;-75
2022/11/06 05:27:55;;;;;;;15.05;8.20;;;8.80;99.90;;;;;;5008595;28;20096;-80
2022/11/06 05:30:21;;;;;;;15.80;8.50;;;8.70;99.90;;;;;;5025372;28;20042;-74
2022/11/06 05:32:47;;;;;;;13.30;8.13;;;8.80;99.90;;;;;;5024736;28;20088;-77
2022/11/06 05:35:13;;;;;;;13.07;9.10;;;8.80;99.90;;;;;;5007095;28;20377;-81
2022/11/06 05:37:39;;;;;;;9.93;7.30;;;8.60;99.90;;;;;;5025955;28;20067;-81
2022/11/06 05:40:06;;;;;;;8.40;5.55;;;8.90;99.90;;;;;;5024934;28;20567;-73
2022/11/06 05:42:33;;;;;;;12.48;8.13;;;8.70;99.90;;;;;;5023705;28;20049;-74
2022/11/06 05:44:59;;;;;;;9.63;6.95;;;8.90;99.90;;;;;;5025526;28;20045;-77
2022/11/06 05:47:24;;;;;;;10.48;6.97;;;8.90;99.90;;;;;;5026385;28;20063;-77
2022/11/06 05:49:50;;;;;;;9.30;6.22;;;8.60;99.90;;;;;;5023987;28;20108;-73
2022/11/06 05:52:16;;;;;;;13.07;6.88;;;8.80;99.90;;;;;;5024522;28;20152;-75
2022/11/06 05:54:41;;;;;;;11.55;6.78;;;8.70;99.90;;;;;;5024478;28;20041;-78
2022/11/06 05:57:07;;;;;;;12.13;6.05;;;8.80;99.90;;;;;;5025034;28;20385;-81
2022/11/06 05:59:32;;;;;;;7.90;5.57;;;8.80;99.90;;;;;;5023773;28;20064;-78
2022/11/06 06:01:58;;;;;;;10.40;5.57;;;8.80;99.90;;;;;;5006578;28;20540;-71
2022/11/06 06:04:24;;;;;;;15.05;7.13;;;8.80;99.90;;;;;;5022818;28;20038;-79
2022/11/06 06:06:51;;;;;;;11.23;6.28;;;8.70;99.90;;;;;;5025009;28;20081;-75
2022/11/06 06:09:16;;;;;;;11.23;4.90;;;8.70;99.90;;;;;;5024516;28;20041;-80
2022/11/06 06:11:42;;;;;;;12.13;6.18;;;8.70;99.90;;;;;;5024534;28;20466;-72
2022/11/06 06:14:08;;;;;;;11.43;6.25;;;8.80;99.90;;;;;;5024817;28;20460;-76
2022/11/06 06:16:33;;;;;;;10.27;5.70;;;8.80;99.90;;;;;;5025090;28;20041;-78
2022/11/06 06:18:59;;;;;;;12.10;6.50;;;8.70;99.90;;;;;;5024326;28;20095;-75
2022/11/06 06:21:25;;;;;;;12.68;5.55;;;9.20;99.90;;;;;;5007259;28;20060;-74
2022/11/06 06:23:50;;;;;;;14.40;6.32;;;8.90;99.90;;;;;;5005547;28;20049;-73
2022/11/06 06:26:16;;;;;;;9.63;4.68;;;8.80;99.90;;;;;;5006507;28;20096;-74
2022/11/06 06:28:42;;;;;;;8.00;4.65;;;8.80;99.90;;;;;;5006766;28;20080;-76
2022/11/06 06:31:09;;;;;;;10.63;4.97;;;9.00;99.90;;;;;;5024506;28;20541;-75
2022/11/06 06:33:34;;;;;;;11.93;5.32;;;8.80;99.90;;;;;;5023783;28;20058;-71
2022/11/06 06:36:04;;;;;;;6.13;3.53;;;8.80;99.90;;;;;;5024034;28;20602;-72
2022/11/06 06:38:30;;;;;;;10.30;4.55;;;8.90;99.90;;;;;;5007245;28;20111;-76
2022/11/06 06:41:00;;;;;;;9.75;4.22;;;9.00;99.90;;;;;;5006726;28;20042;-74
2022/11/06 06:43:26;;;;;;;11.85;4.68;;;9.00;99.90;;;;;;5023823;28;20140;-74
2022/11/06 06:45:52;;;;;;;8.88;4.60;;;9.00;99.90;;;;;;5024430;28;20108;-75
2022/11/06 06:48:18;;;;;;;11.52;4.85;;;9.00;99.90;;;;;;5023197;28;20053;-68
2022/11/06 06:50:43;;;;;;;10.48;4.95;;;9.00;99.90;;;;;;5005538;28;20103;-71
2022/11/06 06:53:09;;;;;;;7.65;4.40;;;8.90;99.90;;;;;;5005627;28;20389;-77
2022/11/06 06:55:35;;;;;;;6.57;3.58;;;9.00;99.90;;;;;;5006057;28;20120;-76
2022/11/06 06:58:01;;;;;;;8.70;3.08;;;9.00;99.90;;;;;;5024116;28;20475;-75
2022/11/06 07:00:27;;;;;;;9.18;4.00;;;9.10;99.90;;;;;;5022847;28;20033;-73
2022/11/06 07:02:53;;;;;;;9.27;4.50;;;9.00;99.90;;;;;;5005218;28;20539;-80
2022/11/06 07:05:19;;;;;;;9.00;4.10;;;9.00;99.90;;;;;;5023423;28;20049;-81
2022/11/06 07:07:45;;;;;;;11.00;4.53;;;9.20;99.90;;;;;;5005732;28;20076;-77
2022/11/06 07:10:11;;;;;;;12.88;3.92;;;9.00;99.90;;;;;;5022888;28;20219;-73
2022/11/06 07:12:37;;;;;;;9.27;4.10;;;9.20;99.90;;;;;;5005373;28;20156;-76
2022/11/06 07:15:03;;;;;;;9.32;4.38;;;9.00;99.90;;;;;;5024196;28;20045;-69
2022/11/06 07:17:28;;;;;;;9.02;4.10;;;9.20;99.90;;;;;;5005784;28;20084;-67
2022/11/06 07:19:54;;;;;;;9.05;4.13;;;9.10;99.90;;;;;;5023191;28;20077;-75
2022/11/06 07:22:20;;;;;;;4.40;2.50;;;9.10;99.90;;;;;;5024076;28;20061;-75
2022/11/06 07:24:45;;;;;;;10.32;3.72;;;9.30;99.90;;;;;;4996484;28;20038;-70
2022/11/06 07:27:11;;;;;;;6.18;2.67;;;9.40;99.90;;;;;;4985762;28;20038;-80
2022/11/06 07:29:36;;;;;;;12.35;3.63;;;9.20;99.90;;;;;;4986652;28;20573;-72
2022/11/06 07:32:02;;;;;;;7.20;2.95;;;9.20;99.90;;;;;;5003812;28;20112;-69
2022/11/06 07:34:28;;;;;;;6.18;2.58;;;9.20;99.90;;;;;;5003017;28;20056;-81
2022/11/06 07:36:54;;;;;;;6.53;3.15;;;9.30;99.90;;;;;;4985624;28;20068;-82
2022/11/06 07:39:19;;;;;;;9.68;3.63;;;9.30;99.90;;;;;;5003753;28;20053;-69
2022/11/06 07:41:45;;;;;;;3.50;2.00;;;9.30;99.90;;;;;;5003800;28;20815;-73
2022/11/06 07:44:12;;;;;;;7.57;3.10;;;9.30;99.90;;;;;;4986051;28;20472;-75
2022/11/06 07:46:37;;;;;;;9.00;3.70;;;9.30;99.90;;;;;;5003628;28;20108;-79
2022/11/06 07:49:03;;;;;;;11.27;3.20;;;9.50;99.90;;;;;;5002900;28;20389;-76
2022/11/06 07:51:28;;;;;;;7.60;3.20;;;9.30;99.90;;;;;;4985242;28;20116;-72
2022/11/06 07:53:54;;;;;;;5.10;2.70;;;9.50;99.90;;;;;;5002463;28;20737;-73
2022/11/06 07:56:20;;;;;;;6.22;2.95;;;9.50;99.90;;;;;;5003570;28;20385;-81
2022/11/06 07:58:45;;;;;;;10.15;3.17;;;9.60;99.90;;;;;;5003413;28;20057;-78
2022/11/06 08:01:16;;;;;;;8.13;3.08;;;9.60;99.90;;;;;;5002992;28;20049;-73
2022/11/06 08:03:42;;;;;;;10.55;3.60;;;9.40;99.90;;;;;;5002217;28;20536;-79
2022/11/06 08:06:08;;;;;;;7.75;3.00;;;9.40;99.90;;;;;;5020010;28;20041;-76
2022/11/06 08:08:34;;;;;;;5.35;3.03;;;9.40;99.90;;;;;;5005348;28;20045;-71
2022/11/06 08:11:05;;;;;;;11.65;4.70;;;9.50;99.90;;;;;;5022015;28;20041;-68
2022/11/06 08:13:32;;;;;;;8.13;4.47;;;9.50;99.90;;;;;;5005803;28;20106;-76
2022/11/06 08:16:02;;;;;;;5.38;2.35;;;9.50;99.90;;;;;;5022918;28;20876;-72
2022/11/06 08:18:27;;;;;;;8.68;2.50;;;9.50;99.90;;;;;;4998926;28;20064;-78
2022/11/06 08:20:53;;;;;;;5.57;2.45;;;9.60;99.90;;;;;;5014340;28;20520;-72
2022/11/06 08:23:19;;;;;;;7.55;3.00;;;9.80;99.90;;;;;;4989215;28;20045;-75
2022/11/06 08:25:44;;;;;;;6.47;3.10;;;9.70;99.90;;;;;;4996011;28;20454;-75
2022/11/06 08:28:10;;;;;;;7.78;2.92;;;9.70;99.90;;;;;;5011900;28;20042;-83
2022/11/06 08:30:36;;;;;;;7.72;2.80;;;9.70;99.90;;;;;;4993359;28;20049;-86
2022/11/06 08:33:05;;;;;;;8.05;2.70;;;9.80;99.90;;;;;;5010495;28;20484;-68
2022/11/06 08:35:32;;;;;;;9.77;2.78;;;9.90;99.90;;;;;;5011284;28;20129;-72
2022/11/06 08:37:58;;;;;;;5.68;1.92;;;9.90;99.90;;;;;;5005270;28;20042;-82
2022/11/06 08:40:23;;;;;;;12.13;3.28;;;9.80;99.90;;;;;;5012830;28;20048;-75
2022/11/06 08:42:49;;;;;;;6.70;2.65;;;9.80;99.90;;;;;;5007892;28;20068;-72
2022/11/06 08:45:15;;;;;;;7.45;2.70;;;10.00;99.90;;;;;;4991398;28;20468;-78
2022/11/06 08:47:40;;;;;;;6.47;3.22;;;10.00;99.90;;;;;;5012269;28;20499;-81
2022/11/06 08:50:06;;;;;;;5.13;2.60;;;9.90;99.90;;;;;;4990412;28;20041;-81
2022/11/06 08:52:32;;;;;;;5.65;2.45;;;9.90;99.90;;;;;;5011008;28;20115;-72
2022/11/06 08:54:58;;;;;;;9.25;2.70;;;10.20;99.90;;;;;;5011150;28;20586;-76
2022/11/06 08:57:24;;;;;;;6.65;2.08;;;10.10;99.90;;;;;;4993597;28;20124;-82
2022/11/06 08:59:50;;;;;;;6.25;2.50;;;10.00;99.90;;;;;;5012845;28;20054;-83
2022/11/06 09:02:15;;;;;;;6.70;2.03;;;10.00;99.90;;;;;;5009616;28;20500;-72
2022/11/06 09:04:41;;;;;;;6.10;2.35;;;10.00;99.90;;;;;;5014708;28;20050;-71
2022/11/06 09:07:07;;;;;;;7.60;2.67;;;10.10;99.90;;;;;;5019773;28;20037;-80
2022/11/06 09:09:32;;;;;;;6.65;2.80;;;10.00;99.90;;;;;;5012519;28;20103;-79
2022/11/06 09:11:59;;;;;;;7.10;2.80;;;9.80;99.90;;;;;;5010393;28;20484;-80
2022/11/06 09:14:25;;;;;;;6.45;2.20;;;10.00;99.90;;;;;;5011862;28;20038;-79
2022/11/06 09:16:51;;;;;;;7.10;2.53;;;9.90;99.90;;;;;;4994339;28;20048;-80
2022/11/06 09:19:17;;;;;;;9.00;2.85;;;9.80;99.90;;;;;;4988131;28;20061;-78
2022/11/06 09:21:43;;;;;;;6.18;1.95;;;9.90;99.90;;;;;;4999798;28;20057;-78
2022/11/06 09:24:08;;;;;;;7.72;2.10;;;9.80;99.90;;;;;;4990895;28;20610;-70
2022/11/06 09:26:34;;;;;;;6.80;2.85;;;10.00;99.90;;;;;;4992288;28;20046;-80
2022/11/06 09:29:00;;;;;;;5.45;2.47;;;10.00;99.90;;;;;;5001051;28;20042;-76
2022/11/06 09:31:26;;;;;;;6.40;2.47;;;10.00;99.90;;;;;;5002094;28;20042;-69
2022/11/06 09:33:51;;;;;;;9.95;2.90;;;10.00;99.90;;;;;;5001304;28;20042;-72
2022/11/06 09:36:17;;;;;;;8.20;3.05;;;10.10;99.90;;;;;;5001925;28;20509;-73
2022/11/06 09:38:43;;;;;;;7.38;2.85;;;10.00;99.90;;;;;;5001255;28;20072;-78
2022/11/06 09:41:24;;;;;;;5.75;2.50;;;10.00;99.90;;;;;;5001371;28;20081;-79
2022/11/06 09:44:08;;;;;;;7.28;3.13;;;9.80;99.90;;;;;;4994231;28;20049;-72
2022/11/06 09:46:39;;;;;;;8.52;2.70;;;10.20;99.90;;;;;;4991241;28;20085;-73
2022/11/06 09:49:10;;;;;;;5.75;2.50;;;10.30;99.90;;;;;;4990977;28;20073;-78
2022/11/06 09:51:42;;;;;;;6.43;3.10;;;10.30;99.90;;;;;;4991896;28;20103;-74
2022/11/06 09:54:24;;;;;;;5.82;2.25;;;10.20;99.90;;;;;;4992305;28;20038;-78
2022/11/06 09:57:02;;;;;;;4.63;1.90;;;10.50;99.90;;;;;;5007839;28;20089;-77
2022/11/06 09:59:30;;;;;;;6.53;2.10;;;10.40;99.90;;;;;;4994100;28;20384;-78
2022/11/06 10:02:00;;;;;;;5.35;2.47;;;10.50;99.90;;;;;;4994957;28;20038;-75
2022/11/06 10:04:46;;;;;;;7.15;2.40;;;10.90;99.90;;;;;;4993448;28;20050;-79
2022/11/06 10:07:32;;;;;;;8.18;1.80;;;10.80;99.90;;;;;;5004751;28;20053;-72
2022/11/06 10:09:59;;;;;;;8.85;2.58;;;10.90;99.90;;;;;;5004737;28;20133;-74
2022/11/06 10:12:39;;;;;;;8.15;2.30;;;10.90;99.90;;;;;;5003833;28;20042;-78
2022/11/06 10:15:23;;;;;;;7.63;2.20;;;11.00;99.90;;;;;;4967342;28;20409;-77
2022/11/06 10:18:10;;;;;;;5.55;1.75;;;11.20;99.90;;;;;;4988978;28;20066;-73
2022/11/06 10:20:51;;;;;;;6.93;2.63;;;11.20;99.90;;;;;;4986855;28;20077;-79
2022/11/06 10:23:34;;;;;;;5.95;2.10;;;11.30;99.90;;;;;;5004543;28;20137;-76
2022/11/06 10:26:20;;;;;;;8.68;2.50;;;11.40;99.90;;;;;;5003825;28;20045;-68
2022/11/06 10:29:40;;;;;;;4.68;2.03;;;11.30;99.90;;;;;;4986021;28;20057;-71
2022/11/06 10:32:28;;;;;;;6.20;2.10;;;11.20;99.90;;;;;;4944663;28;20083;-77
2022/11/06 10:35:00;;;;;;;3.75;1.70;;;11.20;99.90;;;;;;4946020;28;20498;-76
2022/11/06 10:37:33;;;;;;;7.15;2.67;;;11.10;99.90;;;;;;4993551;28;20058;-80
2022/11/06 10:40:04;;;;;;;7.78;2.60;;;11.10;99.90;;;;;;5003829;28;20041;-72
2022/11/06 10:42:40;;;;;;;8.35;2.70;;;11.20;99.90;;;;;;5004343;28;20057;-79
2022/11/06 10:45:13;;;;;;;16.85;3.42;;;11.20;99.90;;;;;;5004123;28;20034;-81
2022/11/06 10:47:45;;;;;;;7.90;2.55;;;11.20;99.90;;;;;;4985929;28;20042;-75
2022/11/06 10:50:13;;;;;;;9.38;2.45;;;11.30;99.90;;;;;;4985602;28;20042;-80
2022/11/06 10:52:52;;;;;;;6.90;2.53;;;11.20;99.90;;;;;;5003030;28;20053;-75
2022/11/06 10:55:35;;;;;;;6.75;2.13;;;11.30;99.90;;;;;;5003776;28;20096;-73
2022/11/06 10:58:31;;;;;;;4.45;2.10;;;11.00;99.90;;;;;;5003414;28;20129;-72
2022/11/06 11:01:03;;;;;;;5.78;2.70;;;11.00;99.90;;;;;;4982208;28;20057;-73
2022/11/06 11:03:38;;;;;;;6.10;2.63;;;10.90;99.90;;;;;;5002440;28;20045;-75
2022/11/06 11:06:04;;;;;;;6.68;3.15;;;11.00;99.90;;;;;;5019745;28;20049;-72
2022/11/06 11:08:31;;;;;;;6.53;2.65;;;11.00;99.90;;;;;;5003906;28;20085;-78
2022/11/06 11:11:01;;;;;;;8.13;3.33;;;10.80;99.90;;;;;;5022778;28;20096;-72
2022/11/06 11:13:27;;;;;;;8.40;2.63;;;10.80;99.90;;;;;;5023351;28;20518;-71
2022/11/06 11:15:53;;;;;;;6.40;3.03;;;10.80;99.90;;;;;;4988905;28;20046;-80
2022/11/06 11:18:30;;;;;;;5.10;2.13;;;10.60;99.90;;;;;;5022666;28;20061;-72
2022/11/06 11:21:24;;;;;;;10.88;3.40;;;10.60;99.90;;;;;;5018569;28;20148;-77
2022/11/06 11:24:06;;;;;;;7.65;3.58;;;10.80;99.90;;;;;;4986271;28;20207;-85
2022/11/06 11:26:45;;;;;;;6.20;3.50;;;10.70;99.90;;;;;;5003216;28;20049;-74
2022/11/06 11:29:19;;;;;;;9.68;3.53;;;10.60;99.90;;;;;;5004253;28;20058;-78
2022/11/06 11:31:49;;;;;;;8.63;3.75;;;10.80;99.90;;;;;;5005629;28;20443;-80
2022/11/06 11:34:19;;;;;;;9.93;3.75;;;10.70;99.90;;;;;;4984921;28;20520;-74
2022/11/06 11:37:01;;;;;;;7.53;3.40;;;10.90;99.90;;;;;;5003247;28;20393;-86
2022/11/06 11:39:33;;;;;;;8.63;3.35;;;11.00;99.90;;;;;;4968638;28;20067;-81
2022/11/06 11:42:31;;;;;;;4.57;2.00;;;11.10;99.90;;;;;;5003303;28;20054;-77
2022/11/06 11:45:09;;;;;;;5.63;2.30;;;11.30;99.90;;;;;;4969452;28;20211;-76
2022/11/06 11:47:46;;;;;;;4.50;2.47;;;11.40;99.90;;;;;;5002604;28;20128;-72
2022/11/06 11:50:21;;;;;;;6.10;1.98;;;11.40;99.90;;;;;;5001569;28;20041;-77
2022/11/06 11:52:48;;;;;;;;;;;11.40;99.90;;;;;;4985074;28;20045;-77
2022/11/06 11:55:20;;;;;;;8.15;1.80;;;11.60;99.90;;;;;;4985090;28;19917;-75
2022/11/06 11:57:50;;;;;;;4.07;1.45;;;11.60;99.90;;;;;;5010322;28;20120;-78
2022/11/06 12:00:17;;;;;;;5.00;1.77;;;11.50;99.90;;;;;;5004915;28;20049;-74
2022/11/06 12:02:50;;;;;;;6.22;2.00;;;11.50;99.90;;;;;;4988530;28;20563;-77
2022/11/06 12:05:22;;;;;;;6.97;2.22;;;11.60;99.90;;;;;;4987788;28;20045;-74
2022/11/06 12:07:52;;;;;;;7.82;2.30;;;11.80;99.90;;;;;;5004921;28;20045;-79
2022/11/06 12:10:32;;;;;;;5.55;1.90;;;11.80;99.90;;;;;;4990933;28;20109;-75
2022/11/06 12:13:01;;;;;;;4.55;1.45;;;11.70;99.90;;;;;;5006556;28;20140;-73
2022/11/06 12:15:44;;;;;;;4.15;1.50;;;11.70;99.90;;;;;;5021695;28;20041;-78
2022/11/06 12:18:18;;;;;;;5.15;1.70;;;11.90;99.90;;;;;;5021211;28;20103;-78
2022/11/06 12:20:53;;;;;;;6.03;2.10;;;12.00;99.90;;;;;;5002853;28;20052;-77
2022/11/06 12:23:52;;;;;;;6.13;1.85;;;11.90;99.90;;;;;;5020392;28;20100;-70
2022/11/06 12:26:38;;;;;;;4.00;1.63;;;12.00;99.90;;;;;;4994594;28;20445;-73
2022/11/06 12:29:10;;;;;;;10.02;2.45;;;12.10;99.90;;;;;;4993578;28;20041;-73
2022/11/06 12:31:59;;;;;;;5.20;1.55;;;12.00;99.90;;;;;;4993708;28;20104;-71
2022/11/06 12:34:30;;;;;;;5.45;1.40;;;12.20;99.90;;;;;;5012554;28;20192;-79
2022/11/06 12:37:18;;;;;;;3.58;1.48;;;12.20;99.90;;;;;;5018235;28;20041;-76
2022/11/06 12:39:55;;;;;;;5.35;1.52;;;12.40;99.90;;;;;;4999915;28;20073;-74
2022/11/06 12:42:26;;;;;;;3.65;1.45;;;12.40;99.90;;;;;;4999059;28;20054;-69
2022/11/06 12:44:52;;;;;;;2.92;1.02;;;12.30;99.90;;;;;;5000857;28;20180;-73
2022/11/06 12:47:41;;;;;;;4.15;1.45;;;12.20;99.90;;;;;;5000798;28;20120;-71
2022/11/06 12:50:28;;;;;;;3.03;1.33;;;12.30;99.90;;;;;;4999164;28;20082;-73
2022/11/06 12:53:33;;;;;;;4.78;1.70;;;12.30;99.90;;;;;;4986446;28;20100;-79
2022/11/06 12:56:08;;;;;;;;;;;12.40;99.90;;;;;;4983024;28;20049;-77
2022/11/06 12:59:00;;;;;;;4.95;1.42;;;12.40;99.90;;;;;;5018954;28;20733;-73
2022/11/06 13:01:28;;;;;;;4.10;1.38;;;12.50;99.90;;;;;;5003164;28;20049;-78
2022/11/06 13:04:16;;;;;;;4.22;1.20;;;12.60;99.90;;;;;;5005019;28;20061;-73
2022/11/06 13:07:01;;;;;;;2.65;0.98;;;12.50;99.90;;;;;;5000460;28;20151;-76
2022/11/06 13:09:34;;;;;;;5.40;1.73;;;12.50;99.90;;;;;;5001868;28;20069;-75
2022/11/06 13:12:22;;;;;;;4.00;1.60;;;12.50;99.90;;;;;;5002807;28;20124;-77
2022/11/06 13:14:57;;;;;;;5.25;1.35;;;12.50;99.90;;;;;;5019226;28;20076;-83
2022/11/06 13:17:49;;;;;;;3.95;1.45;;;12.50;99.90;;;;;;5002150;28;20072;-78
2022/11/06 13:20:41;;;;;;;5.68;1.90;;;12.40;99.90;;;;;;4999368;28;20049;-81
2022/11/06 13:23:19;;;;;;;7.43;2.17;;;12.30;99.90;;;;;;5002054;28;20484;-83